SVAT weather

San Fernando de Atabapo Airport
San Fernando de Atabapo, Amazonas, Venezuela

Public forecast

Using degrees Celsius for public forecast. Weather courtesy of forecast.io.

METAR (pilot weather report)

Report is more than 6 hours old.

Closest report is Cacique Aramare Airport, 94.4 nm (174.8 km) N. Retrieved 2018/01/24 14:00 UTC (2 years ago):

SVPA 241400Z /////KT CAVOK 30/20 Q1012

TAF (pilot weather forecast)

Forecast is more than 12 hours old.

Closest forecast is El Dorado International Airport, 387.9 nm (718.5 km) W. Retrieved 2019/09/15 00:30 UTC (1 day ago):

TAF SKBO 152230Z 1600/1624 VRB02KT 9999 SCT020 SCT080 PROB40 TEMPO 1907/1910 DZ BKN015 BECMG 1914/1916 14016KT TX20/1618Z TN09/1611Z